Dades de l'estació automàtica Alcarràs
Resum diari
20:30 TU| Temperatura mitjana | 15.3 °C | |
|---|---|---|
| Temperatura màxima | 23.1 °C | 13:06 TU |
| Temperatura mínima | 6.5 °C | 4:24 TU |
| Humitat relativa mitjana | 72% | |
| Precipitació acumulada | 0.0 mm | |
| Ratxa màxima del vent (2 m) | 14.4 km/h - 62º | 13:13 TU |
El tram horari està expressat en Temps Universal (TU). Cal sumar una hora en horari d'hivern i dues en horari d'estiu per passar a l'hora oficial.
Alcarràs
| Municipi | Alcarràs |
|---|---|
| Comarca | Segrià |
| Altitud | 125 m |
| Data alta | 31.07.2013 |
| Estat actual | Operativa |
| Període TU |
TM °C |
TX °C |
TN °C |
HRM % |
PPT mm |
VVM (2 m) km/h |
DVM (2 m) graus |
VVX (2 m) km/h |
|---|---|---|---|---|---|---|---|---|
| 00:00 - 00:30 | 10.8 | 11.6 | 10.4 | 98 | 0.0 | 0.7 | 351 | 3.6 |
| 00:30 - 01:00 | 10.0 | 10.5 | 9.2 | 100 | 0.0 | 0.0 | 3 | 1.1 |
| 01:00 - 01:30 | 9.4 | 9.7 | 9.2 | 100 | 0.0 | 0.0 | 216 | 2.5 |
| 01:30 - 02:00 | 8.7 | 9.4 | 8.4 | 100 | 0.0 | 0.7 | 2 | 4.0 |
| 02:00 - 02:30 | 8.5 | 8.8 | 8.4 | 100 | 0.0 | (s/d) | (s/d) | (s/d) |
| 02:30 - 03:00 | 8.0 | 8.6 | 7.6 | 100 | 0.0 | (s/d) | (s/d) | (s/d) |
| 03:00 - 03:30 | 7.4 | 7.6 | 7.1 | 100 | 0.0 | 0.7 | 354 | 4.0 |
| 03:30 - 04:00 | 7.5 | 7.8 | 7.4 | 100 | 0.0 | 0.4 | 346 | 2.2 |
| 04:00 - 04:30 | 7.0 | 7.5 | 6.5 | 100 | 0.0 | 0.0 | 345 | 2.2 |
| 04:30 - 05:00 | 6.8 | 7.1 | 6.6 | 100 | 0.0 | 0.0 | 0 | 0.0 |
| 05:00 - 05:30 | 6.8 | 7.5 | 6.6 | 100 | 0.0 | 0.7 | 12 | 2.9 |
| 05:30 - 06:00 | 8.7 | 9.4 | 7.7 | 100 | 0.0 | 2.2 | 55 | 7.9 |
| 06:00 - 06:30 | 10.2 | 11.2 | 9.4 | 97 | 0.0 | 4.0 | 70 | 7.2 |
| 06:30 - 07:00 | 12.2 | 13.4 | 11.3 | 88 | 0.0 | 1.1 | 121 | 5.8 |
| 07:00 - 07:30 | 13.0 | 13.3 | 12.6 | 85 | 0.0 | 2.2 | 74 | 6.1 |
| 07:30 - 08:00 | 14.0 | 14.7 | 13.3 | 79 | 0.0 | 1.4 | 88 | 5.8 |
| 08:00 - 08:30 | 15.1 | 15.7 | 14.5 | 75 | 0.0 | 1.8 | 143 | 5.4 |
| 08:30 - 09:00 | 16.0 | 16.8 | 15.4 | 69 | 0.0 | 2.5 | 58 | 7.6 |
| 09:00 - 09:30 | 17.0 | 17.3 | 16.7 | 65 | 0.0 | 2.5 | 44 | 7.6 |
| 09:30 - 10:00 | 17.4 | 17.7 | 17.3 | 60 | 0.0 | 4.0 | 41 | 9.4 |
| 10:00 - 10:30 | 18.3 | 19.1 | 17.6 | 56 | 0.0 | 0.7 | 153 | 5.0 |
| 10:30 - 11:00 | 19.0 | 19.4 | 18.7 | 53 | 0.0 | 1.8 | 123 | 4.7 |
| 11:00 - 11:30 | 19.8 | 20.6 | 19.2 | 50 | 0.0 | 2.5 | 110 | 9.0 |
| 11:30 - 12:00 | 20.9 | 21.8 | 20.2 | 50 | 0.0 | 3.2 | 240 | 11.2 |
| 12:00 - 12:30 | 21.8 | 22.4 | 21.2 | 48 | 0.0 | 3.2 | 240 | 10.8 |
| 12:30 - 13:00 | 21.8 | 22.6 | 21.3 | 47 | 0.0 | 5.0 | 76 | 11.9 |
| 13:00 - 13:30 | 22.0 | 23.1 | 21.1 | 46 | 0.0 | 5.0 | 70 | 14.4 |
| 13:30 - 14:00 | 21.5 | 22.2 | 21.1 | 48 | 0.0 | 5.8 | 54 | 12.2 |
| 14:00 - 14:30 | 22.3 | 22.8 | 21.7 | 44 | 0.0 | 6.8 | 51 | 13.7 |
| 14:30 - 15:00 | 21.7 | 22.3 | 21.5 | 45 | 0.0 | 4.7 | 75 | 11.5 |
| 15:00 - 15:30 | 21.6 | 21.9 | 21.2 | 48 | 0.0 | 2.5 | 92 | 10.1 |
| 15:30 - 16:00 | 21.1 | 21.7 | 20.7 | 50 | 0.0 | 1.4 | 124 | 7.9 |
| 16:00 - 16:30 | 21.7 | 21.9 | 21.5 | 46 | 0.0 | 1.8 | 125 | 13.0 |
| 16:30 - 17:00 | 21.7 | 22.3 | 21.4 | 48 | 0.0 | 2.2 | 139 | 9.4 |
| 17:00 - 17:30 | 21.5 | 21.8 | 21.2 | 48 | 0.0 | 2.2 | 185 | 10.8 |
| 17:30 - 18:00 | 20.7 | 21.4 | 20.0 | 49 | 0.0 | 2.2 | 193 | 9.7 |
| 18:00 - 18:30 | 19.3 | 19.9 | 18.5 | 53 | 0.0 | 1.8 | 186 | 12.2 |
| 18:30 - 19:00 | 17.6 | 18.4 | 16.4 | 62 | 0.0 | 0.4 | 177 | 2.9 |
| 19:00 - 19:30 | 15.6 | 16.3 | 14.7 | 72 | 0.0 | 1.1 | 341 | 4.3 |
| 19:30 - 20:00 | 14.0 | 14.6 | 13.3 | 80 | 0.0 | 0.0 | 0 | 0.0 |
| 20:00 - 20:30 | 12.9 | 13.2 | 12.3 | 84 | 0.0 | 0.7 | 350 | 2.9 |
| 20:30 - 21:00 | 12.1 | 12.3 | 11.9 | 89 | 0.0 | 2.2 | 357 | 4.7 |
| 21:00 - 21:30 | (s/d) | (s/d) | (s/d) | (s/d) | (s/d) | (s/d) | (s/d) | (s/d) |
Les dades en taronja només han passat un control de qualitat automàtic. Resta pendent la seva validació definitiva.